MET: Información y Pronóstico Aeronáutico

///////////////////////////////////////////////////////////////////////////////////////////////////////////////////////////////////////////////////////////////////////////////////////////////////////////////////////////////////////////////

Member for

4 años 4 meses
Enviado por meteorologia el Jue, 10/06/2021 - 09:33
1/12

1 DE DICIEMBRE 2022

INFORMACION METEOROLOGICA AERONAUTICA (METAR) 12:00 UTC

Aeropuerto AEROPARQUE J. NEWBERY

01 - 12:00 METAR SABE 011200Z 19006KT 140V240 9000 -DZ OVC008 19/17 Q1010 NOSIG RMK PP999 =

Aeropuerto BAHIA BLANCA

01 - 12:00 METAR SAZB 011200Z 13009KT 100V170 9999 BKN023 19/12 Q1018 RMK PP000 =

Aeropuerto BARILOCHE

01 - 12:00 METAR SAZS 011200Z 00000KT CAVOK 10/03 Q1019 RMK PP/// =

Aeropuerto CATAMARCA

01 - 12:20 METAR SANC 011220Z 23008KT 2000 OVC010 17/17 Q1018 =

Aeropuerto CHAPELCO

01 - 12:00 METAR SAZY 011200Z 00000KT CAVOK 09/01 Q1019 =

Aeropuerto COMODORO RIVADAVIA

01 - 12:00 METAR SAVC 011200Z 29017KT CAVOK 17/M02 Q1013 RMK PP000 =

Aeropuerto CORDOBA

01 - 12:00 METAR SACO 011200Z VRB01KT 9000 FEW045TCU SCT100 BKN200 19/15 Q1015 TEMPO 14010G20KT 9999 BKN015 RMK PP000 =

Aeropuerto CORRIENTES

01 - 12:00 METAR SARC 011200Z 22007KT CAVOK 24/19 Q1007 =

Aeropuerto EL CALAFATE

01 - 12:00 METAR SAWC 011200Z 34006KT 9999 FEW040 OVC200 13/M01 Q1000 =

Aeropuerto EL PALOMAR

01 - 12:00 METAR SADP 011200Z 20012KT 7000 -DZ OVC010 18/17 Q1010 RMK PP/// =

Aeropuerto ESQUEL

01 - 12:00 METAR SAVE 011200Z VRB01KT CAVOK 09/02 Q1018 =

Aeropuerto EZEIZA

01 - 12:00 METAR SAEZ 011200Z 20011KT 9999 OVC010 18/16 Q1010 NOSIG RMK PP000 =

Aeropuerto FORMOSA

01 - 12:00 METAR SARF 011200Z 17006KT 9999 FEW025TCU FEW100 SCT200 28/19 Q1006 =

Aeropuerto IGUAZU/CATARATAS

01 - 12:00 METAR SARI 011200Z 07006KT 040V100 CAVOK 26/20 Q1007 RMK PP000 =

Aeropuerto JUJUY

01 - 12:00 METAR SASJ 011200Z 20005KT 170V250 9999 SCT040 BKN100 20/16 Q1015 RMK PP000 =

Aeropuerto LA RIOJA

01 - 12:00 METAR SANL 011200Z 05003KT 9999 FEW030 BKN050 19/17 Q1017 =

Aeropuerto MALARGUE

01 - 12:00 METAR SAMM 011200Z 18004KT 9999 SCT025 13/07 Q1021 =

Aeropuerto MAR DEL PLATA

01 - 12:00 METAR SAZM 011200Z 17015KT 1200 R13/1300 RA BR BKN010 OVC020 16/16 Q1013 RMK PP/// =

Aeropuerto MENDOZA

01 - 12:00 METAR SAME 011200Z 23005KT 190V270 9999 -RA FEW030 BKN040 18/13 Q1019 =

Aeropuerto MORON

01 - 12:00 METAR SADM 011200Z 18013KT 9999 OVC009 18/17 Q1011 =

Aeropuerto NEUQUEN

01 - 12:00 METAR SAZN 011200Z 09006KT CAVOK 18/05 Q1018 =

Aeropuerto PARANA

01 - 12:00 METAR SAAP 011200Z 16016KT 9999 SCT010 BKN200 24/17 Q1011 =

Aeropuerto POSADAS

01 - 12:00 METAR SARP 011200Z 32004KT CAVOK 27/21 Q1006 =

Aeropuerto PUERTO MADRYN

01 - 12:00 METAR SAVY 011200Z 29012KT CAVOK 19/08 Q1016 =

Aeropuerto RECONQUISTA

01 - 12:00 METAR SATR 011200Z 20014KT 9999 BKN045 24/19 Q1007 =

Aeropuerto RESISTENCIA

01 - 12:00 METAR SARE 011200Z 25005KT CAVOK 22/18 Q1007 RMK PP/// =

Aeropuerto RIO CUARTO

01 - 12:00 METAR SAOC 011200Z 18013KT 9999 FEW015 SCT100 18/14 Q1016 RMK ESTIMATED WIND =

Aeropuerto RIO GALLEGOS

01 - 12:00 METAR SAWG 011200Z 32011KT 9999 FEW025 SCT100 BKN200 14/M05 Q0998 =

Aeropuerto RIO GRANDE

01 - 12:00 METAR SAWE 011200Z 30033G43KT CAVOK 14/02 Q0992 RMK PP000 =

Aeropuerto ROSARIO

01 - 12:00 METAR SAAR 011200Z 19014KT 9999 BKN018 21/17 Q1011 RMK PP000 =

Aeropuerto SALTA

01 - 12:00 METAR SASA 011200Z 09005KT 9999 BKN020 SCT060 18/14 Q1016 RMK PP000 =

Aeropuerto SAN FERNANDO

01 - 12:00 METAR SADF 011200Z 22011KT 9999 BKN009 OVC010 19/17 Q1010 RMK PP000 =

Aeropuerto SAN JUAN

01 - 12:00 METAR SANU 011200Z 16013KT 9999 SCT040 BKN060 19/11 Q1019 =

Aeropuerto SAN LUIS

01 - 12:00 METAR SAOU 011200Z 29005KT 9999 SCT035 SCT040 BKN100 18/14 Q1018 =

Aeropuerto SAN RAFAEL

01 - 12:00 METAR SAMR 011200Z 27003KT 9999 FEW040 SCT100 20/11 Q1019 =

Aeropuerto SANTA ROSA

01 - 12:00 METAR SAZR 011200Z 16007KT CAVOK 17/12 Q1017 =

Aeropuerto SANTIAGO DEL ESTERO

01 - 12:00 METAR SANE 011200Z 25004KT 9999 FEW018 SCT030 BKN100 21/16 Q1014 =

Aeropuerto SAUCE VIEJO

01 - 12:00 METAR SAAV 011200Z 20016KT 9999 SCT020 SCT200 23/18 Q1011 RMK PP/// =

Aeropuerto TANDIL

01 - 12:00 METAR SAZT 011200Z 16018KT 9999 OVC008 16/14 Q1014 =

Aeropuerto TERMAS DE RIO HONDO

01 - 12:00 METAR SANR 011200Z 32002KT 8000 RADZ FEW012 SACT025 BKN035 20/18 Q1005 =

Aeropuerto TRELEW

01 - 12:00 METAR SAVT 011200Z 31011KT 280V340 CAVOK 19/05 Q1016 RMK PP000 =

Aeropuerto TUCUMAN

01 - 12:00 METAR SANT 011200Z 24007KT 8000 -RA FEW006 SCT030 BKN080 18/17 Q1015 RMK PP004 =

Aeropuerto USHUAIA

01 - 12:01 METAR SAWH 011200Z 30014KT 9999 SCT048 13/02 Q0986 RMK PP000 =

Aeropuerto VIEDMA

01 - 12:00 METAR SAVV 011200Z 08005KT 330V140 CAVOK 17/11 Q1018 =

Aeropuerto VILLA REYNOLDS

01 - 12:00 METAR SAOR 011200Z 14005KT 9999 FEW020 17/14 Q1018 =

 PRONOSTICO DE AERODROMO (TAF) 11:00 UTC

Estación AEROPARQUE J. NEWBERY

01 - 11:00 TAF SABE 011100Z 0112/0212 18015KT 9999 BKN012 TX25/0119Z TN15/0210Z TEMPO 0112/0114 9000 -DZ SCT008 BKN010 BECMG 0115/0117 18010G20KT 9999 NSW BKN020 BECMG 0118/0120 16015KT SCT030 =

Estación BAHIA BLANCA

01 - 11:00 TAF SAZB 011100Z 0112/0212 13005KT 9999 BKN020 TX21/0118Z TN13/0209Z BECMG 0114/0116 CAVOK BECMG 0202/0204 34010KT =

Estación BARILOCHE

01 - 11:00 TAF SAZS 011100Z 0112/0212 VRB05KT CAVOK TX22/0119Z TN07/0210Z BECMG 0114/0116 29015G25KT BECMG 0200/0204 29010KT BECMG 0206/0208 VRB03KT =

Estación CATAMARCA

01 - 11:00 TAF SANC 011100Z 0112/0212 23010KT 1000 +RA BKN005 OVC40 TX26/0118Z TN17/0611Z TEMPO 0113/0117 18010KT 6000 -RA DZ BKN010 BKN045 BECMG 0120/0123 14005KT 9999 NSW SCT040 =

Estación CHAPELCO

01 - 11:00 TAF SAZY 011100Z 0112/0212 27005KT CAVOK TX25/0118Z TN08/0209Z TEMPO 0118/0121 27015G25KT =

Estación COMODORO RIVADAVIA

01 - 11:00 SAVC 011100

Estación CORDOBA

01 - 11:00 TAF SACO 011100Z 0112/0212 32005KT 9999 SCT040TCU TX28/0118Z TN12/0211Z BECMG 0113/0116 14010KT 9999 BKN015 OVC030 FEW040CB PROB40 TEMPO 0116/0119 16010KT 5000 TSRA SCT010 OVC020 FEW035CB BECMG 0122/0201 23005KT 9999 SCT030 =

Estación CORRIENTES

01 - 11:00 TAF SARC 011100Z 0112/0212 18005KT 9999 FEW048TCU SCT100 TX30/0118Z TN20/0210Z BECMG 0115/0117 9999 SCT030 BKN100 PROB30 0118/0122 6000 SHRA BKN030 FEW045CB BECMG 0122/0124 SCT025 BKN100 BECMG 0206/0208 8000 NSC =

Estación EL CALAFATE

01 - 11:00 TAF SAWC 011100Z 0112/0212 27015KT 9999 FEW030 BKN100 TX18/0118Z TN10/0112Z TEMPO 0116/0122 27020G30KT =

Estación EL PALOMAR

01 - 11:00 TAF SADP 011100Z 0112/0212 21010KT 9999 OVC010 TX26/0118Z TN14/0209Z BECMG 0113/0115 18015G30KT OVC020 BECMG 0115/0117 SCT040 BECMG 0121/0123 14005KT CAVOK =

Estación ESQUEL

01 - 11:00 TAF SAVE 011100Z 0112/0212 27010KT CAVOK TX24/0118Z TN02/0112Z BECMG 0116/0118 29015G25KT SCT030 BKN080 =

Estación EZEIZA

01 - 11:00 TAF SAEZ 011100Z 0112/0212 22010KT 9999 OVC008 TX26/0118Z TN14/0209Z BECMG 0113/0115 18015G30KT OVC020 BECMG 0115/0117 SCT040 BECMG 0121/0123 14005KT CAVOK =

Estación FORMOSA

01 - 11:00 TAF SARF 011100Z 0112/0212 18005KT CAVOK TX33/0118Z TN22/0210Z BECMG 0116/0118 9999 SCT020 SCT100 PROB30 0120/0124 6000 SHRA BKN030 FEW045CB BECMG 0202/0204 BKN025 BKN100 BECMG 0208/0210 8000 SCT020 BKN100 =

Estación IGUAZU/CATARATAS

01 - 11:00 TAF SARI 011100Z 0112/0212 09010KT TX33/0118Z TN20/0210Z TEMPO 0115/0120 9999 SCT025 BECMG 0201/0203 20005KT =

Estación JUJUY

01 - 11:00 TAF SASJ 011100Z 0112/0212 23005KT 5000 TSRA SCT020 BKN040 FEW045CB TX26/0119Z TN16/0210Z TEMPO 0115/0121 18010KT 8000 BKN030 FEW040TCU BECMG 0202/0205 34010KT 6000 RA BKN010 OVC030 =

Estación LA RIOJA

01 - 11:00 TAF SANL 011100Z 0112/0212 25005KT 6000 -RA STC020 BKN045 TX28/0118Z TN15/0610Z BECMG 0117/0120 05010KT 9999 NSW SCT035 =

Estación MAR DEL PLATA

01 - 11:00 TAF SAZM 011100Z 0112/0212 16015KT 5000 RADZ BKN010 BKN020 TX20/0118Z TN14/0210Z BECMG 0116/1618 9999 BKN030 BECMG 0202/0204 18010KT 8000 SCT030 BECMG 0208/0211 16005KT 4000 BR BKN010 =

Estación MENDOZA

01 - 11:00 TAF SAME 011100Z 0112/0212 23005KT 9999 BKN040 TX28/0120Z TN18/0210Z BECMG 0115/0117 05005KT 9999 SCT040 BECMG 0202/0204 20005KT 9999 FEW040 =

Estación NEUQUEN

01 - 11:00 TAF SAZN 011100Z 0112/0212 09005KT CAVOK TX30/0120Z TN15/0209Z BECMG 0119/0120 02010KT BECMG 0202/0205 27010KT =

Estación PARANA

01 - 11:00 TAF SAAP 011100Z 0112/0212 16010KT 9999 FEW010 TX31/0118Z TN20/0209Z BECMG 0113/0115 CAVOK TEMPO 0118/0121 20015G25KT BECMG 0204/0206 14005KT =

Estación POSADAS

01 - 11:00 TAF SARP 011100Z 0112/0212 09005KT CAVOK TX33/0118Z TN20/0210Z TEMPO 0115/0120 9999 SCT025 BECMG 0201/0203 16005KT =

Estación RESISTENCIA

01 - 11:00 TAF SARE 011100Z 0112/0212 18005KT CAVOK TX30/0118Z TN20/0210Z BECMG 0115/0117 9999 SCT030 BKN100 PROB30 0118/0122 6000 SHRA BKN030 FEW045CB BECMG 0122/0124 SCT025 BKN100 BECMG 0206/0208 8000 NSC =

Estación RIO CUARTO

01 - 11:00 TAF SAOC 011100Z 0112/0212 18015KT 9999 SCT025 TX26/0118Z TN13/01612Z TEMPO 0113/0116 16010KT BKN020 BECMG 0122/0200 11010KT CAVOK =

Estación RIO GALLEGOS

01 - 11:00 TAF SAWG 011100Z 0112/0212 32010KT 9999 SCT030 BKN070 TX21/0118Z TN10/0112Z BECMG 0117/0119 34015KT 9999 -RA SCT020 OVC050 BECMG 0120/0122 VRB05KT NSW SCT030 SCT100 BECMG 0210/0212 34015G25KT =

Estación RIO GRANDE

01 - 11:00 TAF SAWE 011100Z 0112/0212 32025G35KT 9999 SCT030 SCT100 TX13/0119Z TN10/0112Z BECMG 0116/0118 6000 -RA BKN025 OVC050 BECMG 0202/0204 32020G30KT 9999 NSW FEW035 SCT070 =

Estación ROSARIO

01 - 11:00 TAF SAAR 011100Z 0112/0212 18015KT 9999 BKN012 TX29/0119Z TN15/0209Z TEMPO 0114/0120 18015G25KT BECMG 0114/0116 SCT030 BECMG 0206/0208 14005KT CAVOK =

Estación SALTA

01 - 11:00 TAF SASA 011100Z 0112/0212 36005KT 9999 SCT020 BKN040 FEW045TCU TX24/0119Z TN14/0210Z PROB40 TEMPO 0113/0116 5000 TSRA BKN015 OVC040 FEW050CB BECMG 0201/0204 VRB02KT 7000 -RA BKN010 OVC040 =

Estación SAN FERNANDO

01 - 11:00 TAF SADF 011100Z 0112/0212 18015KT 9999 OVC015 TX26/0119Z TN15/0209Z BECMG 0116/0118 SCT025 BECMG 0120/0122 14010KT CAVOK BECMG 0203/0205 16005KT =

Estación SAN JUAN

01 - 11:00 TAF SANU 011100Z 0112/0212 16010KT 9999 SCT040 BKN100 TX33/0120Z TN19/0210Z BECMG 0115/0117 05005KT 9999 FEW040 BECMG 0202/0204 23005KT CAVOK =

Estación SAN LUIS

01 - 11:00 TAF SAOU 011100Z 0112/0212 36005KT 6000 BKN030 FEW040CB TX30/0119Z TN19/0208Z BECMG 0114/0116 09010KT 9999 NSW SCT030 BECMG 0203/0205 05005KT CAVOK =

Estación SAN RAFAEL

01 - 11:00 TAF SAMR 011100Z 0112/0212 23005KT 9999 FEW040 TX28/0120Z TN16/0210Z BECMG 0115/0117 05005KT BECMG 0203/0205 29005KT CAVOK =

Estación SANTA ROSA

01 - 11:00 TAF SAZR 011100Z 0112/0212 16010KT CAVOK TX26/0118Z TN14/0209Z BECMG 0202/0204 34010KT =

Estación SANTIAGO DEL ESTERO

01 - 11:00 TAF SANE 011100Z 0112/0212 18015KT 9999 SCT030 BKN040 FEW045TCU TX29/0119Z TN17/0610Z BECMG 0113/0116 18015G25KT 5000 TSRA SCT020 OVC030CB FEW040CB BECMG 0119/0121 23005KT 9999 NSW BKN025 =

Estación SAUCE VIEJO

01 - 11:00 TAF SAAV 011100Z 0112/0212 25010KT 9999 SCT010 TX30/0118Z TN19/0209Z BECMG 0113/0115 CAVOK TEMPO 0118/0121 20015G25KT BECMG 0204/0206 14005KT =

Estación TERMAS DE RIO HONDO

01 - 11:00 TAF SANR 011100Z 0112/0212 25005KT 5000 RA SCT010 BKN025 TX29/0119Z TN17/0610Z PROB30 TEMPO 0113/0116 18015KT 000 TSRA SCT020 OVC030CB FEW040CB BECMG 0118/0120 23005KT 9999 NSW BKN025 =

Estación TRELEW

01 - 11:00 TAF SAVT 011100Z 0112/0212 34010KT CAVOK TX30/0118Z TN14/0112Z BECMG 0113/0115 02015G30KT BECMG 0203/0205 27010KT SCT030 =

Estación TUCUMAN

01 - 11:00 TAF SANT 011100Z 0112/0212 23010KT 2000 +RA SCT003 OVC030 TX24/0120Z TN16/0210Z TEMPO 0115/0118 18010KT 5000 TSRA SCT005 BKN020 FEW040CB BECMG 0118/0121 20010KT 7000 -RA BKN010 OVC040 BECMG 0200/0203 VRB03KT 9999 NSW SCT025 =

Estación USHUAIA

01 - 11:00 TAF SAWH 011100Z 0112/0212 33015G25KT 8000 DZBR BKN018 OVC025 TX13/0119Z TN04/0112Z BECMG 0114/0116 35010KT 9999 VCDZ BKN025 OVC050 =

Estación VIEDMA

01 - 11:00 TAF SAVV 011100Z 0112/0212 09005KT CAVOK TX29/0118Z TN11/0112Z BECMG 0113/0115 05012KT =